Time;durP1;ratioP1;P1;durP2;ratioP2;P2;SDS_P1;SDS_P2;PMS_P1;PMS_P2;Temp;Humidity;BMP_temperature;BMP_pressure;BME280_temperature;BME280_humidity;BME280_pressure;Samples;Min_cycle;Max_cycle;Signal;HPM_P1;HPM_P2
2022/06/14 00:00:54;;;;;;;3.95;3.50;;;;;;;27.48;49.37;99078.61;1726315;82;21054;-61
2022/06/14 00:03:36;;;;;;;7.50;4.65;;;;;;;27.46;49.36;99074.24;1736449;82;21098;-61
2022/06/14 00:06:06;;;;;;;4.20;3.77;;;;;;;27.46;49.29;99076.16;1723582;82;21053;-61
2022/06/14 00:08:32;;;;;;;3.95;3.55;;;;;;;27.44;49.39;99077.02;1720746;82;21546;-61
2022/06/14 00:11:03;;;;;;;3.87;3.30;;;;;;;27.42;49.34;99075.95;1723816;82;21713;-63
2022/06/14 00:13:32;;;;;;;3.85;3.55;;;;;;;27.42;49.38;99074.58;1726588;82;21620;-61
2022/06/14 00:15:58;;;;;;;4.33;3.92;;;;;;;27.41;49.46;99077.06;1728176;82;21037;-62
2022/06/14 00:18:25;;;;;;;5.05;3.70;;;;;;;27.41;49.54;99067.52;1724993;82;21049;-61
2022/06/14 00:20:52;;;;;;;5.58;3.50;;;;;;;27.40;49.53;99067.81;1733232;82;21097;-62
2022/06/14 00:23:19;;;;;;;4.80;3.65;;;;;;;27.39;49.55;99061.55;1734317;82;21160;-62
2022/06/14 00:25:47;;;;;;;4.12;3.72;;;;;;;27.39;49.67;99063.45;1723381;82;21033;-62
2022/06/14 00:28:16;;;;;;;5.85;4.58;;;;;;;27.39;49.69;99063.45;1723639;82;21532;-62
2022/06/14 00:30:46;;;;;;;4.65;3.87;;;;;;;27.37;49.49;99054.75;1733773;82;21069;-63
2022/06/14 00:33:13;;;;;;;5.92;3.55;;;;;;;27.36;49.66;99051.23;1748354;82;21581;-62
2022/06/14 00:35:41;;;;;;;5.00;4.00;;;;;;;27.36;49.57;99055.31;1733284;81;21502;-62
2022/06/14 00:38:11;;;;;;;4.95;3.80;;;;;;;27.35;49.63;99054.24;1723607;81;21098;-62
2022/06/14 00:40:38;;;;;;;4.22;3.83;;;;;;;27.34;49.66;99054.00;1706369;82;21010;-62
2022/06/14 00:43:13;;;;;;;3.85;3.50;;;;;;;27.34;49.63;99054.00;1748731;82;21008;-62
2022/06/14 00:45:45;;;;;;;4.65;3.60;;;;;;;27.33;49.51;99045.55;1731601;81;21050;-63
2022/06/14 00:48:25;;;;;;;5.80;3.27;;;;;;;27.31;49.48;99045.84;1716318;82;21159;-62
2022/06/14 00:51:13;;;;;;;4.10;3.70;;;;;;;27.31;49.58;99046.40;1717500;82;21030;-62
2022/06/14 00:53:58;;;;;;;4.30;3.90;;;;;;;27.29;49.61;99037.14;1709584;82;21038;-63
2022/06/14 00:56:56;;;;;;;4.70;3.83;;;;;;;27.28;49.58;99041.55;1717367;82;21062;-63
2022/06/14 00:59:36;;;;;;;4.95;3.85;;;;;;;27.25;49.62;99042.41;1713401;82;21050;-64
2022/06/14 01:02:16;;;;;;;5.65;4.05;;;;;;;27.23;49.57;99037.74;1716255;82;21124;-62
2022/06/14 01:04:43;;;;;;;5.95;4.15;;;;;;;27.22;49.54;99040.23;1716879;82;21015;-63
2022/06/14 01:07:18;;;;;;;3.85;3.37;;;;;;;27.20;49.58;99041.08;1715028;82;21042;-63
2022/06/14 01:09:55;;;;;;;3.83;3.50;;;;;;;27.20;49.49;99040.27;1716824;82;21011;-62
2022/06/14 01:12:26;;;;;;;4.53;4.10;;;;;;;27.17;49.51;99032.11;1716802;82;21062;-62
2022/06/14 01:15:14;;;;;;;4.40;3.95;;;;;;;27.18;49.61;99038.40;1721358;82;21235;-62
2022/06/14 01:17:44;;;;;;;3.95;3.65;;;;;;;27.16;49.64;99034.59;1700733;82;21062;-63
2022/06/14 01:20:15;;;;;;;5.95;3.83;;;;;;;27.15;49.70;99027.51;1707143;82;21137;-63
2022/06/14 01:22:41;;;;;;;5.03;4.53;;;;;;;27.14;49.74;99032.72;1715546;82;21106;-63
2022/06/14 01:25:08;;;;;;;5.12;4.05;;;;;;;27.13;49.81;99029.72;1716104;82;21042;-63
2022/06/14 01:27:37;;;;;;;4.08;3.67;;;;;;;27.13;49.86;99030.28;1721695;82;21155;-63
2022/06/14 01:30:13;;;;;;;4.10;3.80;;;;;;;27.12;49.95;99030.84;1719579;82;21102;-63
2022/06/14 01:32:54;;;;;;;4.97;3.52;;;;;;;27.12;49.96;99028.12;1715867;82;21050;-63
2022/06/14 01:35:25;;;;;;;4.15;3.75;;;;;;;27.11;49.99;99030.57;1706522;82;21699;-62
2022/06/14 01:37:54;;;;;;;3.72;3.37;;;;;;;27.10;50.00;99028.97;1715939;82;21059;-63
2022/06/14 01:41:02;;;;;;;5.20;3.37;;;;;;;27.09;50.04;99031.98;1718617;82;21796;-62
2022/06/14 01:43:54;;;;;;;4.70;3.83;;;;;;;27.10;50.03;99030.86;1719164;82;21023;-62
2022/06/14 01:46:26;;;;;;;4.10;3.70;;;;;;;27.07;50.00;99022.73;1720644;82;21101;-61
2022/06/14 01:52:21;;;;;;;3.67;3.37;;;;;;;27.04;49.98;99020.58;1726675;82;21553;-63
2022/06/14 01:55:27;;;;;;;3.90;3.52;;;;;;;27.02;50.01;99018.17;1725536;82;21144;-63
2022/06/14 01:58:17;;;;;;;4.83;3.47;;;;;;;27.00;50.07;99012.17;1726855;82;21010;-64
2022/06/14 02:01:04;;;;;;;4.67;3.60;;;;;;;26.98;49.99;99010.30;1726765;82;21035;-63
2022/06/14 02:07:03;;;;;;;3.65;3.30;;;;;;;26.96;49.79;99013.07;1721228;82;21061;-62
2022/06/14 02:09:45;;;;;;;5.12;3.70;;;;;;;26.95;49.85;99011.47;1725540;82;21236;-62
2022/06/14 02:12:14;;;;;;;4.03;3.62;;;;;;;26.92;49.91;99010.13;1725086;82;21038;-62
2022/06/14 02:14:51;;;;;;;5.20;3.87;;;;;;;26.91;49.74;99010.41;1719872;82;21106;-62
2022/06/14 02:17:37;;;;;;;3.92;3.52;;;;;;;26.90;49.74;99012.89;1720486;82;21117;-63
2022/06/14 02:20:12;;;;;;;3.65;3.33;;;;;;;26.90;49.75;99015.05;1687396;83;21084;-62
2022/06/14 02:22:43;;;;;;;4.10;3.70;;;;;;;26.89;49.65;99014.81;1722757;82;21113;-62
2022/06/14 02:25:17;;;;;;;5.12;3.65;;;;;;;26.88;49.51;99015.34;1735536;82;21049;-62
2022/06/14 02:28:22;;;;;;;5.17;3.60;;;;;;;26.88;49.53;99017.27;1729071;82;21030;-62
2022/06/14 02:30:57;;;;;;;4.85;3.33;;;;;;;26.87;49.64;99007.48;1724306;82;21041;-63
2022/06/14 02:33:33;;;;;;;3.58;3.27;;;;;;;26.86;49.70;99009.38;1726096;82;21062;-63
2022/06/14 02:36:08;;;;;;;4.03;2.98;;;;;;;26.86;49.67;99011.30;1730827;81;21195;-63
2022/06/14 02:38:47;;;;;;;3.55;3.05;;;;;;;26.85;49.56;99005.05;1730523;82;20998;-62
2022/06/14 02:41:33;;;;;;;3.98;3.65;;;;;;;26.85;49.53;99009.14;1736298;82;21137;-62
2022/06/14 02:44:05;;;;;;;3.52;3.20;;;;;;;26.84;49.58;99005.34;1723608;82;21091;-62
2022/06/14 02:46:37;;;;;;;6.92;4.28;;;;;;;26.84;49.51;99003.97;1721125;82;21093;-63
2022/06/14 02:49:15;;;;;;;3.45;3.15;;;;;;;26.83;49.46;99008.63;1729055;82;21721;-62
2022/06/14 02:51:50;;;;;;;4.87;3.60;;;;;;;26.82;49.46;99006.98;1722543;82;21051;-62
2022/06/14 02:54:37;;;;;;;3.55;3.25;;;;;;;26.82;49.40;99000.17;1735236;82;21033;-62
2022/06/14 02:57:38;;;;;;;3.85;3.55;;;;;;;26.81;49.39;98999.09;1729674;82;21037;-63
2022/06/14 03:00:13;;;;;;;3.87;3.40;;;;;;;26.82;49.39;98997.45;1660682;85;21061;-63
2022/06/14 03:03:03;;;;;;;3.50;3.30;;;;;;;26.80;49.40;98990.69;1746616;82;22412;-62
2022/06/14 03:05:58;;;;;;;4.62;3.30;;;;;;;26.80;49.47;98987.40;1732378;82;21544;-62
2022/06/14 03:08:46;;;;;;;4.53;3.10;;;;;;;26.79;49.41;98986.32;1733274;82;21164;-62
2022/06/14 03:11:37;;;;;;;3.70;3.33;;;;;;;26.77;49.57;98978.47;1723684;82;21049;-62
2022/06/14 03:14:19;;;;;;;4.37;3.98;;;;;;;26.76;49.58;98979.55;1731817;82;21050;-62
2022/06/14 03:17:18;;;;;;;4.60;3.90;;;;;;;26.77;49.64;98976.27;1721386;82;21142;-62
2022/06/14 03:19:50;;;;;;;6.47;3.40;;;;;;;26.77;49.58;98985.28;1675237;85;21598;-63
2022/06/14 03:22:28;;;;;;;4.22;3.70;;;;;;;26.76;49.64;98978.20;1742271;82;21037;-63
2022/06/14 03:25:07;;;;;;;5.67;3.67;;;;;;;26.75;49.65;98977.13;1722633;82;21014;-62
2022/06/14 03:27:48;;;;;;;5.53;3.85;;;;;;;26.74;49.60;98978.24;1722845;82;21029;-63
2022/06/14 03:30:23;;;;;;;3.80;3.50;;;;;;;26.73;49.61;98986.94;1651222;85;21163;-62
2022/06/14 03:33:01;;;;;;;4.20;3.80;;;;;;;26.73;49.46;99026.45;1733663;82;21601;-63
2022/06/14 03:35:44;;;;;;;4.25;3.85;;;;;;;26.72;49.32;99032.21;1731449;82;21035;-62
2022/06/14 03:38:17;;;;;;;;;;;;;;;26.70;49.28;99029.77;1730097;82;21041;-63
2022/06/14 03:40:44;;;;;;;8.00;3.72;;;;;;;26.69;49.48;99029.50;1720109;82;20448;-62
2022/06/14 03:43:11;;;;;;;7.40;4.28;;;;;;;26.67;49.77;99040.68;1727947;82;22191;-62
2022/06/14 03:45:59;;;;;;;6.58;4.45;;;;;;;26.67;49.84;99045.33;1722671;82;21533;-62
2022/06/14 03:48:26;;;;;;;4.50;4.20;;;;;;;26.68;49.88;99049.69;1737566;82;21002;-62
2022/06/14 03:51:24;;;;;;;7.35;4.67;;;;;;;26.68;49.87;99041.52;1722086;82;21065;-63
2022/06/14 03:54:37;;;;;;;4.72;4.33;;;;;;;26.68;49.92;99040.16;1734849;82;21086;-62
2022/06/14 03:57:27;;;;;;;5.20;4.75;;;;;;;26.66;49.97;99042.36;1724022;82;21143;-63
2022/06/14 04:00:30;;;;;;;5.12;4.60;;;;;;;26.65;50.20;99048.89;1724929;82;22103;-63
2022/06/14 04:03:37;;;;;;;6.10;5.20;;;;;;;26.62;50.43;99050.30;1731368;82;21029;-62
2022/06/14 04:06:15;;;;;;;5.28;4.78;;;;;;;26.61;50.45;99051.39;1733048;82;21502;-62
2022/06/14 04:09:09;;;;;;;6.05;5.10;;;;;;;26.59;50.54;99056.31;1733175;82;21002;-63
2022/06/14 04:11:51;;;;;;;6.25;5.65;;;;;;;26.60;50.60;99068.05;1729846;82;21231;-62
2022/06/14 04:15:01;;;;;;;7.45;6.40;;;;;;;26.60;50.75;99084.39;1739712;82;21048;-62
2022/06/14 04:18:01;;;;;;;8.85;6.10;;;;;;;26.58;50.73;99086.53;1721753;82;21042;-63
2022/06/14 04:20:40;;;;;;;8.35;5.22;;;;;;;26.57;50.80;99103.98;1733642;82;21207;-63
2022/06/14 04:23:23;;;;;;;7.95;6.20;;;;;;;26.56;50.91;99107.80;1736641;82;21053;-62
2022/06/14 04:25:55;;;;;;;;;;;;;;;26.56;50.96;99112.72;1731675;82;21703;-61
2022/06/14 04:28:28;;;;;;;10.40;5.72;;;;;;;26.55;50.87;99118.45;1725050;82;20443;-61
2022/06/14 04:31:09;;;;;;;8.23;6.12;;;;;;;26.54;50.90;99118.17;1731978;82;21033;-62
2022/06/14 04:33:55;;;;;;;8.63;5.25;;;;;;;26.52;50.98;99126.66;1701767;83;21550;-62
2022/06/14 04:36:32;;;;;;;6.78;5.35;;;;;;;26.51;51.10;99130.47;1722072;82;21711;-61
2022/06/14 04:39:04;;;;;;;6.45;4.87;;;;;;;26.51;51.16;99137.83;1721599;82;21331;-62
2022/06/14 04:41:39;;;;;;;5.62;5.08;;;;;;;26.50;51.21;99143.81;1731118;82;21026;-61
2022/06/14 04:44:23;;;;;;;5.95;4.67;;;;;;;26.48;51.24;99163.19;1725932;82;21086;-61
2022/06/14 04:47:00;;;;;;;8.63;4.70;;;;;;;26.48;51.26;99169.99;1719528;82;21555;-60
2022/06/14 04:49:32;;;;;;;5.65;5.08;;;;;;;26.47;51.33;99167.55;1720082;82;21575;-60
2022/06/14 04:52:11;;;;;;;5.87;4.72;;;;;;;26.47;51.38;99177.08;1723771;82;21092;-60
2022/06/14 04:54:46;;;;;;;5.70;3.95;;;;;;;26.47;51.48;99183.89;1688110;83;21018;-61
2022/06/14 04:57:43;;;;;;;6.53;4.80;;;;;;;26.46;51.49;99189.89;1727606;82;21584;-61
2022/06/14 05:00:14;;;;;;;5.05;4.62;;;;;;;26.45;51.55;99190.98;1727387;82;21105;-61
2022/06/14 05:03:01;;;;;;;6.22;3.95;;;;;;;26.44;51.61;99193.45;1728841;82;21040;-61
2022/06/14 05:05:47;;;;;;;6.37;4.05;;;;;;;26.43;51.69;99189.09;1721599;82;21762;-61
2022/06/14 05:08:29;;;;;;;3.85;3.52;;;;;;;26.42;51.69;99205.16;1741188;82;20995;-61
2022/06/14 05:11:13;;;;;;;7.33;3.70;;;;;;;26.41;51.67;99209.55;1731252;82;21055;-62
2022/06/14 05:14:10;;;;;;;3.90;3.50;;;;;;;26.39;51.66;99215.83;1720283;82;21609;-61
2022/06/14 05:17:00;;;;;;;5.53;4.15;;;;;;;26.37;51.67;99218.83;1727617;82;21026;-61
2022/06/14 05:19:49;;;;;;;5.00;3.67;;;;;;;26.35;51.73;99228.36;1721178;82;21512;-60
2022/06/14 05:23:00;;;;;;;5.62;3.75;;;;;;;26.31;51.76;99229.51;1722928;82;21018;-61
2022/06/14 05:25:32;;;;;;;4.42;3.37;;;;;;;26.30;51.79;99229.23;1727756;82;21526;-62
2022/06/14 05:28:03;;;;;;;4.10;3.30;;;;;;;26.26;51.85;99237.70;1723051;82;21071;-62
2022/06/14 05:30:48;;;;;;;5.35;3.80;;;;;;;26.26;51.96;99244.52;1739012;82;21033;-61
2022/06/14 05:33:38;;;;;;;3.95;3.55;;;;;;;26.24;52.00;99252.95;1728408;82;21141;-61
2022/06/14 05:36:16;;;;;;;5.10;3.33;;;;;;;26.23;52.03;99261.40;1737605;82;21186;-61
2022/06/14 05:38:54;;;;;;;4.72;3.10;;;;;;;26.21;52.10;99249.98;1726323;82;21053;-61
2022/06/14 05:41:46;;;;;;;4.58;3.22;;;;;;;26.21;52.01;99263.07;1720114;82;21062;-61
2022/06/14 05:44:18;;;;;;;3.55;2.67;;;;;;;26.19;52.02;99251.66;1737296;82;21015;-61
2022/06/14 05:46:49;;;;;;;3.50;3.20;;;;;;;26.19;51.94;99260.34;1731763;82;21159;-61
2022/06/14 05:49:31;;;;;;;3.35;2.80;;;;;;;26.18;51.92;99264.98;1723775;82;21015;-61
2022/06/14 05:52:20;;;;;;;3.15;2.87;;;;;;;26.17;51.91;99265.27;1694636;82;21554;-61
2022/06/14 05:54:52;;;;;;;3.85;3.22;;;;;;;26.15;51.93;99275.06;1731783;82;21018;-61
2022/06/14 05:57:33;;;;;;;4.25;3.08;;;;;;;26.14;52.00;99267.20;1723656;82;21548;-61
2022/06/14 06:00:10;;;;;;;3.60;2.92;;;;;;;26.13;52.00;99293.59;1727963;82;21153;-60
2022/06/14 06:02:49;;;;;;;3.50;3.17;;;;;;;26.12;51.96;99302.06;1724925;82;21064;-61
2022/06/14 06:05:29;;;;;;;4.00;2.95;;;;;;;26.11;51.99;99294.98;1746746;82;21514;-62
2022/06/14 06:08:13;;;;;;;3.12;2.92;;;;;;;26.12;51.98;99293.89;1734802;80;21041;-61
2022/06/14 06:10:47;;;;;;;2.95;2.65;;;;;;;26.10;52.02;99300.97;1736577;82;21012;-62
2022/06/14 06:13:25;;;;;;;4.25;3.22;;;;;;;26.12;51.98;99307.50;1738232;82;21172;-62
2022/06/14 06:16:01;;;;;;;3.80;3.25;;;;;;;26.12;51.94;99311.59;1735530;82;21062;-61
2022/06/14 06:18:38;;;;;;;6.40;3.40;;;;;;;26.12;52.01;99317.84;1727756;82;22134;-62
2022/06/14 06:21:48;;;;;;;4.40;3.27;;;;;;;26.12;52.01;99321.92;1724314;82;21058;-60
2022/06/14 06:24:25;;;;;;;4.75;3.20;;;;;;;26.10;52.31;99318.67;1721620;82;21006;-62
2022/06/14 06:27:01;;;;;;;3.30;3.00;;;;;;;26.08;52.91;99321.66;1735100;82;22075;-63
2022/06/14 06:29:49;;;;;;;3.47;3.12;;;;;;;26.07;53.11;99321.94;1728523;82;21080;-63
2022/06/14 06:32:19;;;;;;;3.42;2.98;;;;;;;26.05;53.23;99333.10;1745161;82;21474;-63
2022/06/14 06:34:47;;;;;;;4.10;3.00;;;;;;;26.03;53.17;99333.93;1736978;82;21505;-62
2022/06/14 06:37:25;;;;;;;5.03;2.85;;;;;;;26.00;53.33;99346.75;1735636;80;21542;-61
2022/06/14 06:40:23;;;;;;;4.83;3.58;;;;;;;25.97;53.42;99340.50;1731787;82;21153;-62
2022/06/14 06:43:11;;;;;;;4.85;2.80;;;;;;;25.95;53.50;99337.24;1735941;82;21122;-62
2022/06/14 06:45:42;;;;;;;3.55;2.50;;;;;;;25.94;53.53;99353.84;1731970;82;21052;-62
2022/06/14 06:48:23;;;;;;;3.08;2.55;;;;;;;25.89;53.52;99352.75;1732345;81;21045;-60
2022/06/14 06:51:02;;;;;;;4.78;2.52;;;;;;;25.84;53.69;99362.84;1719069;82;21033;-62
2022/06/14 06:53:36;;;;;;;3.50;3.12;;;;;;;25.80;54.14;99374.81;1729021;82;21155;-62
2022/06/14 06:56:16;;;;;;;5.78;3.55;;;;;;;25.79;54.49;99384.09;1728323;82;21033;-61
2022/06/14 06:59:13;;;;;;;4.15;3.37;;;;;;;25.79;54.85;99393.61;1732447;82;21018;-61
2022/06/14 07:02:35;;;;;;;4.22;2.98;;;;;;;25.84;55.14;99403.64;1863837;76;22576;-62
2022/06/14 07:05:03;;;;;;;3.75;2.90;;;;;;;25.81;55.15;99417.27;1849345;77;20997;-62
2022/06/14 07:07:49;;;;;;;6.00;3.33;;;;;;;25.82;55.13;99408.00;1858685;77;20945;-61
2022/06/14 07:10:27;;;;;;;4.20;2.98;;;;;;;25.82;55.26;99402.56;1849007;77;21458;-61
2022/06/14 07:13:18;;;;;;;5.12;3.80;;;;;;;25.82;55.37;99392.23;1851313;77;21021;-63
2022/06/14 07:16:03;;;;;;;4.42;3.00;;;;;;;25.83;55.48;99401.48;1840023;77;21044;-66
2022/06/14 07:18:45;;;;;;;4.67;2.95;;;;;;;25.85;55.38;99401.21;1847990;77;21048;-62
2022/06/14 07:21:23;;;;;;;3.83;2.50;;;;;;;25.86;55.37;99406.91;1855491;77;21213;-61
2022/06/14 07:23:56;;;;;;;3.10;2.80;;;;;;;25.86;55.17;99405.55;1853408;77;21490;-63
2022/06/14 07:26:42;;;;;;;2.95;2.62;;;;;;;25.85;55.01;99408.82;1849693;75;21064;-63
2022/06/14 07:29:17;;;;;;;3.27;2.50;;;;;;;25.84;54.95;99411.81;1854172;77;21052;-62
2022/06/14 07:32:01;;;;;;;3.40;2.50;;;;;;;25.82;55.11;99425.69;1846106;77;20989;-63
2022/06/14 07:34:28;;;;;;;3.52;2.65;;;;;;;25.84;54.83;99424.86;1826971;77;21142;-63
2022/06/14 07:37:12;;;;;;;3.45;2.83;;;;;;;25.83;54.64;99424.61;1854211;75;21013;-63
2022/06/14 07:40:27;;;;;;;2.87;2.60;;;;;;;25.83;54.69;99422.44;1847960;75;20995;-62
2022/06/14 07:43:08;;;;;;;3.67;2.40;;;;;;;25.84;54.58;99439.02;1779796;77;20998;-62
2022/06/14 07:45:39;;;;;;;3.33;2.25;;;;;;;25.82;54.41;99450.72;1840788;77;20981;-63
2022/06/14 07:48:23;;;;;;;2.83;2.62;;;;;;;25.82;54.46;99450.17;1853563;77;21167;-62
2022/06/14 07:51:11;;;;;;;4.15;2.70;;;;;;;25.84;54.38;99449.91;1851184;77;21044;-62
2022/06/14 07:53:55;;;;;;;3.90;2.42;;;;;;;25.86;54.24;99447.20;1851607;77;20991;-62
2022/06/14 07:56:28;;;;;;;3.45;2.40;;;;;;;25.85;54.07;99459.16;1855231;77;21690;-62
2022/06/14 07:59:03;;;;;;;2.85;2.55;;;;;;;25.87;54.14;99450.17;1858084;76;21080;-61
2022/06/14 08:01:35;;;;;;;2.42;2.22;;;;;;;25.91;54.11;99459.98;1833599;77;21782;-63
2022/06/14 08:04:27;;;;;;;3.83;2.80;;;;;;;25.94;53.98;99459.97;1829420;77;21647;-61
2022/06/14 08:06:58;;;;;;;2.75;2.50;;;;;;;25.96;53.73;99450.46;1823866;77;21006;-62
2022/06/14 08:09:40;;;;;;;3.33;2.42;;;;;;;25.98;53.64;99446.91;1832150;77;21081;-62
2022/06/14 08:12:24;;;;;;;3.25;2.40;;;;;;;26.01;53.62;99446.90;1828307;77;21008;-62
2022/06/14 08:15:05;;;;;;;2.40;2.20;;;;;;;26.03;53.43;99452.32;1825757;78;21140;-62
2022/06/14 08:17:48;;;;;;;3.42;2.62;;;;;;;26.06;53.23;99443.61;1777420;80;21112;-62
2022/06/14 08:20:35;;;;;;;2.08;1.98;;;;;;;26.07;53.15;99451.22;1761407;81;21033;-61
2022/06/14 08:23:07;;;;;;;2.62;2.42;;;;;;;26.08;52.52;99455.59;1821413;78;21011;-61
2022/06/14 08:25:36;;;;;;;2.40;2.20;;;;;;;26.08;52.44;99455.03;1829732;78;20990;-63
2022/06/14 08:28:24;;;;;;;2.65;2.45;;;;;;;26.09;52.37;99453.92;1830094;78;21065;-62
2022/06/14 08:31:08;;;;;;;2.87;2.10;;;;;;;26.10;52.05;99464.29;1827505;77;21041;-62
2022/06/14 08:33:40;;;;;;;2.50;2.30;;;;;;;26.08;51.73;99461.84;1823428;77;21041;-62
2022/06/14 08:36:14;;;;;;;3.27;2.08;;;;;;;26.07;51.24;99466.19;1823818;78;21028;-62
2022/06/14 08:38:49;;;;;;;2.47;2.00;;;;;;;26.06;51.08;99479.00;1827011;78;21014;-62
2022/06/14 08:41:47;;;;;;;2.30;2.02;;;;;;;26.05;50.93;99481.98;1834729;78;21200;-62
2022/06/14 08:44:23;;;;;;;2.83;2.25;;;;;;;26.04;50.65;99495.34;1815981;77;21034;-62
2022/06/14 08:47:37;;;;;;;2.55;2.35;;;;;;;26.01;50.45;99504.86;1831354;78;21272;-62
2022/06/14 08:50:22;;;;;;;;;;;;;;;25.99;50.56;99494.80;1834022;77;21033;-66
2022/06/14 08:53:08;;;;;;;3.92;1.98;;;;;;;25.98;49.48;99500.50;1825285;78;20252;-66
2022/06/14 08:56:12;;;;;;;4.80;1.90;;;;;;;25.90;48.87;99501.33;1831940;77;21156;-66
2022/06/14 08:59:20;;;;;;;1.98;1.70;;;;;;;25.85;48.75;99496.44;1829264;77;21065;-66
2022/06/14 09:02:13;;;;;;;3.08;1.87;;;;;;;25.79;48.26;99491.55;1819619;77;21036;-66
2022/06/14 09:05:09;;;;;;;2.40;1.87;;;;;;;25.74;48.41;99501.07;1798143;78;21042;-66
2022/06/14 09:08:15;;;;;;;3.42;2.17;;;;;;;25.70;48.18;99497.27;1752291;81;21170;-66
2022/06/14 09:10:54;;;;;;;2.50;2.00;;;;;;;25.68;48.17;99496.18;1753451;80;21738;-66
2022/06/14 09:13:35;;;;;;;2.70;2.40;;;;;;;25.66;48.27;99498.91;1752361;80;21503;-65
2022/06/14 09:16:45;;;;;;;4.28;1.82;;;;;;;25.65;48.22;99504.06;1757366;79;21584;-65
2022/06/14 09:20:06;;;;;;;2.55;2.15;;;;;;;25.64;48.15;99507.34;1804331;79;21073;-64
2022/06/14 09:22:38;;;;;;;2.62;1.98;;;;;;;25.61;48.26;99503.83;1767583;81;21034;-67
2022/06/14 09:25:35;;;;;;;4.20;2.03;;;;;;;25.60;48.41;99517.14;1757836;80;21421;-65
2022/06/14 09:28:27;;;;;;;3.67;2.27;;;;;;;25.58;48.12;99507.08;1755719;81;21509;-64
2022/06/14 09:31:23;;;;;;;2.20;2.10;;;;;;;25.56;48.01;99520.14;1757587;81;21093;-64
2022/06/14 09:34:24;;;;;;;2.58;2.00;;;;;;;25.54;47.99;99514.16;1742759;81;21057;-65
2022/06/14 09:37:08;;;;;;;2.52;1.85;;;;;;;25.54;48.11;99514.16;1749193;80;21060;-63
2022/06/14 09:40:06;;;;;;;3.37;2.17;;;;;;;25.57;48.52;99517.67;1755400;81;21158;-65
2022/06/14 09:43:08;;;;;;;3.17;2.05;;;;;;;25.61;48.38;99518.78;1762048;81;21068;-65
2022/06/14 09:46:01;;;;;;;4.35;2.27;;;;;;;25.63;48.37;99528.84;1760045;81;21060;-68
2022/06/14 09:49:19;;;;;;;3.37;2.33;;;;;;;25.63;47.65;99526.13;1764368;80;21439;-67
2022/06/14 09:52:00;;;;;;;2.60;2.20;;;;;;;25.61;47.50;99528.30;1752513;81;21059;-67
2022/06/14 09:55:01;;;;;;;2.55;2.08;;;;;;;25.60;47.63;99519.05;1762525;81;21832;-66
2022/06/14 09:57:43;;;;;;;18.10;11.18;;;;;;;25.60;47.66;99528.02;1759534;81;21096;-62
2022/06/14 10:00:39;;;;;;;59.58;35.85;;;;;;;25.62;47.90;99520.95;1759932;80;21060;-62
2022/06/14 10:03:35;;;;;;;59.98;34.75;;;;;;;25.65;48.36;99513.59;1767420;80;21070;-61
2022/06/14 10:06:26;;;;;;;42.95;26.73;;;;;;;25.72;48.54;99509.25;1777008;80;20994;-61
2022/06/14 10:09:13;;;;;;;27.13;17.95;;;;;;;25.77;48.59;99515.50;1774567;79;21738;-62
2022/06/14 10:12:14;;;;;;;24.55;16.17;;;;;;;25.84;48.36;99511.13;1774694;79;21094;-63
2022/06/14 10:15:01;;;;;;;16.05;11.12;;;;;;;25.90;48.38;99511.38;1779516;79;21108;-60
2022/06/14 10:17:49;;;;;;;15.53;10.65;;;;;;;25.97;48.12;99520.11;1774567;79;21458;-61
2022/06/14 10:20:33;;;;;;;15.20;9.93;;;;;;;26.02;47.85;99518.75;1778062;79;21570;-61
2022/06/14 10:23:32;;;;;;;11.60;8.55;;;;;;;26.06;47.86;99522.55;1789085;78;21142;-62
2022/06/14 10:30:01;;;;;;;4.90;4.15;;;;;;;26.13;47.45;99520.87;1830457;77;21030;-63
2022/06/14 10:33:11;;;;;;;5.40;4.47;;;;;;;26.14;46.53;99514.36;1829262;77;21069;-63
2022/06/14 10:36:10;;;;;;;4.75;3.40;;;;;;;26.15;46.20;99512.45;1838094;77;21544;-63
2022/06/14 10:39:10;;;;;;;3.40;3.08;;;;;;;26.16;45.82;99501.84;1830501;77;22735;-63
2022/06/14 10:41:45;;;;;;;5.22;3.42;;;;;;;26.17;45.44;99502.09;1833852;77;21048;-61
2022/06/14 10:44:20;;;;;;;3.35;3.05;;;;;;;26.18;45.22;99502.38;1834128;77;21248;-61
2022/06/14 10:47:04;;;;;;;4.65;3.17;;;;;;;26.20;45.30;99497.47;1834441;77;21474;-61
2022/06/14 10:50:08;;;;;;;3.67;2.60;;;;;;;26.24;45.15;99502.62;1828426;77;21009;-62
2022/06/14 10:52:55;;;;;;;3.80;2.95;;;;;;;26.27;44.47;99494.72;1815786;77;21505;-63
2022/06/14 10:55:50;;;;;;;4.85;2.92;;;;;;;26.29;44.60;99495.81;1834261;77;21513;-62
2022/06/14 10:58:42;;;;;;;3.72;2.98;;;;;;;26.32;45.08;99492.52;1823845;77;25766;-64
2022/06/14 11:01:51;;;;;;;3.67;3.00;;;;;;;26.36;45.46;99495.49;1836736;77;21092;-63
2022/06/14 11:04:26;;;;;;;4.37;3.33;;;;;;;26.38;45.31;99496.84;1848048;77;21070;-64
2022/06/14 11:07:10;;;;;;;3.27;2.98;;;;;;;26.40;45.45;99491.92;1845621;77;21832;-62
2022/06/14 11:10:19;;;;;;;4.72;2.67;;;;;;;26.41;45.56;99492.20;1851302;76;21008;-65
2022/06/14 11:13:17;;;;;;;4.35;2.80;;;;;;;26.42;45.66;99490.29;1814632;77;21013;-65
2022/06/14 11:15:52;;;;;;;3.70;2.90;;;;;;;26.44;45.66;99499.83;1831278;77;21200;-64
2022/06/14 11:18:48;;;;;;;3.70;2.72;;;;;;;26.46;45.77;99502.25;1853857;77;21017;-63
2022/06/14 11:21:44;;;;;;;3.70;2.55;;;;;;;26.46;45.43;99493.55;1864994;76;21747;-64
2022/06/14 11:24:45;;;;;;;3.67;2.70;;;;;;;26.48;45.21;99490.53;1857497;77;21036;-63
2022/06/14 11:27:26;;;;;;;4.58;2.65;;;;;;;26.51;44.61;99491.34;1834818;77;21068;-63
2022/06/14 11:30:44;;;;;;;2.70;2.50;;;;;;;26.55;44.46;99483.43;1854765;77;21484;-64
2022/06/14 11:33:45;;;;;;;3.87;1.98;;;;;;;26.59;44.09;99481.80;1833260;77;21111;-64
2022/06/14 11:36:39;;;;;;;3.30;3.00;;;;;;;26.62;42.69;99477.97;1856921;77;21308;-63
2022/06/14 11:39:14;;;;;;;2.58;2.37;;;;;;;26.64;42.96;99477.70;1842926;77;21003;-63
2022/06/14 11:41:44;;;;;;;2.83;2.47;;;;;;;26.70;43.02;99485.30;1783198;78;21045;-63
2022/06/14 11:44:25;;;;;;;2.62;2.30;;;;;;;26.75;43.41;99481.97;1786347;78;22249;-63
2022/06/14 11:47:20;;;;;;;4.12;2.40;;;;;;;26.81;43.54;99474.05;1808831;78;22089;-64
2022/06/14 11:50:26;;;;;;;4.78;2.50;;;;;;;26.88;43.75;99484.06;1754227;78;21148;-63
2022/06/14 11:53:27;;;;;;;3.10;2.80;;;;;;;26.94;43.87;99477.23;1808107;78;21108;-64
2022/06/14 11:56:04;;;;;;;2.90;2.60;;;;;;;27.00;43.90;99474.17;1731489;80;21534;-62
2022/06/14 11:59:13;;;;;;;3.35;2.40;;;;;;;27.06;43.89;99481.24;1796212;79;22098;-63
2022/06/14 12:01:48;;;;;;;3.08;2.50;;;;;;;27.13;44.27;99476.02;1792192;78;21193;-63
2022/06/14 12:04:40;;;;;;;3.02;2.08;;;;;;;27.21;44.86;99476.76;1817629;78;21237;-64
2022/06/14 12:07:15;;;;;;;3.80;2.35;;;;;;;27.26;45.13;99476.20;1802697;78;21008;-64
2022/06/14 12:10:09;;;;;;;2.30;2.10;;;;;;;27.34;44.88;99482.96;1784213;79;21244;-63
2022/06/14 12:13:01;;;;;;;4.70;2.45;;;;;;;27.40;44.99;99484.53;1773710;78;21478;-63
2022/06/14 12:15:53;;;;;;;3.60;2.22;;;;;;;27.47;44.78;99482.86;1784882;78;21076;-63
2022/06/14 12:18:22;;;;;;;1.90;1.80;;;;;;;27.53;44.70;99478.98;1787415;80;22120;-62
2022/06/14 12:21:10;;;;;;;4.05;2.47;;;;;;;27.59;44.74;99466.11;1813779;78;21094;-62
2022/06/14 12:23:47;;;;;;;3.08;2.77;;;;;;;27.64;44.66;99476.42;1785313;78;21073;-63
2022/06/14 12:26:37;;;;;;;10.48;2.62;;;;;;;27.71;44.82;99475.27;1811684;78;21087;-63
2022/06/14 12:29:31;;;;;;;4.90;2.52;;;;;;;27.77;44.48;99465.92;1776238;80;21531;-64
2022/06/14 12:32:15;;;;;;;5.45;2.47;;;;;;;27.82;44.04;99468.60;1813480;78;21147;-63
2022/06/14 12:35:01;;;;;;;7.83;2.50;;;;;;;27.88;43.84;99474.83;1811271;77;21009;-62
2022/06/14 12:37:53;;;;;;;3.90;2.90;;;;;;;27.94;43.76;99475.06;1775511;80;22054;-62
2022/06/14 12:40:32;;;;;;;2.85;2.33;;;;;;;27.98;43.66;99467.34;1783902;79;21041;-66
2022/06/14 12:43:06;;;;;;;23.25;7.47;;;;;;;28.02;43.50;99472.48;1804328;78;21556;-58
2022/06/14 12:45:59;;;;;;;10.60;4.53;;;;;;;27.90;60.38;99482.20;1809050;78;21166;-59
2022/06/14 12:49:04;;;;;;;7.90;3.65;;;;;;;27.84;54.87;99482.77;1772335;80;21046;-58
2022/06/14 12:51:57;;;;;;;8.03;3.60;;;;;;;27.78;51.16;99479.84;1821462;78;21057;-57
2022/06/14 12:54:45;;;;;;;7.45;2.70;;;;;;;27.74;49.80;99483.69;1774849;80;21033;-59
2022/06/14 12:57:39;;;;;;;4.65;2.50;;;;;;;27.72;47.73;99483.70;1796226;78;21041;-59
2022/06/14 13:00:40;;;;;;;4.83;2.52;;;;;;;27.72;47.21;99476.88;1783541;79;21851;-58
2022/06/14 13:03:36;;;;;;;3.65;2.65;;;;;;;27.74;47.54;99480.13;1775759;78;21068;-58